Time;durP1;ratioP1;P1;durP2;ratioP2;P2;SDS_P1;SDS_P2;PMS_P1;PMS_P2;Temp;Humidity;BMP_temperature;BMP_pressure;BME280_temperature;BME280_humidity;BME280_pressure;Samples;Min_cycle;Max_cycle;Signal;HPM_P1;HPM_P2
2022/05/24 00:00:33;;;;;;;11.63;5.05;;;14.40;99.90;;;;;;5048463;28;20041;-81
2022/05/24 00:02:59;;;;;;;8.25;4.57;;;14.40;99.90;;;;;;5046815;28;20527;-81
2022/05/24 00:05:27;;;;;;;11.68;5.25;;;14.40;99.90;;;;;;5050281;28;20041;-81
2022/05/24 00:07:52;;;;;;;11.25;5.32;;;14.30;99.90;;;;;;5048694;28;20277;-81
2022/05/24 00:10:30;;;;;;;11.05;5.38;;;14.30;99.90;;;;;;5049997;28;20423;-81
2022/05/24 00:12:56;;;;;;;11.43;6.55;;;14.30;99.90;;;;;;5046574;28;20041;-80
2022/05/24 00:15:23;;;;;;;9.15;6.20;;;14.20;99.90;;;;;;5052393;28;20049;-79
2022/05/24 00:18:19;;;;;;;10.82;6.43;;;14.20;99.90;;;;;;5050567;28;20086;-80
2022/05/24 00:20:49;;;;;;;9.98;6.45;;;14.20;99.90;;;;;;5048571;28;20443;-80
2022/05/24 00:23:16;;;;;;;11.98;5.97;;;14.10;99.90;;;;;;5045922;28;20911;-80
2022/05/24 00:25:45;;;;;;;6.75;5.82;;;14.10;99.90;;;;;;5048911;28;20036;-80
2022/05/24 00:28:13;;;;;;;10.40;6.40;;;14.00;99.90;;;;;;5049526;28;20041;-80
2022/05/24 00:30:40;;;;;;;11.68;6.03;;;14.00;99.90;;;;;;5049023;28;20040;-81
2022/05/24 00:33:06;;;;;;;14.30;6.95;;;14.00;99.90;;;;;;5048455;28;20033;-80
2022/05/24 00:35:32;;;;;;;12.77;6.72;;;13.90;99.90;;;;;;5046904;28;20060;-81
2022/05/24 00:37:58;;;;;;;12.40;6.32;;;13.90;99.90;;;;;;5047885;28;20048;-80
2022/05/24 00:40:50;;;;;;;9.05;6.05;;;13.90;99.90;;;;;;5049068;28;20326;-81
2022/05/24 00:43:36;;;;;;;8.30;5.93;;;14.00;99.90;;;;;;5029780;28;20050;-80
2022/05/24 00:46:07;;;;;;;11.52;5.97;;;13.80;99.90;;;;;;5039717;28;20437;-80
2022/05/24 00:48:37;;;;;;;10.70;6.32;;;14.10;99.90;;;;;;5045348;28;20079;-80
2022/05/24 00:51:06;;;;;;;12.48;6.38;;;13.80;99.90;;;;;;5049190;28;20474;-80
2022/05/24 00:53:45;;;;;;;8.85;6.00;;;13.80;99.90;;;;;;5046145;28;20076;-79
2022/05/24 00:56:20;;;;;;;8.00;5.28;;;13.80;99.90;;;;;;5049562;28;20081;-79
2022/05/24 00:58:58;;;;;;;9.48;6.28;;;13.80;99.90;;;;;;5049119;28;20502;-79
2022/05/24 01:01:40;;;;;;;8.27;5.43;;;13.70;99.90;;;;;;5041235;28;20064;-80
2022/05/24 01:04:11;;;;;;;12.13;6.03;;;13.70;99.90;;;;;;5049010;28;20403;-79
2022/05/24 01:06:37;;;;;;;8.40;5.38;;;13.70;99.90;;;;;;5047976;28;20116;-80
2022/05/24 01:09:09;;;;;;;9.77;5.05;;;13.70;99.90;;;;;;5046255;28;20405;-80
2022/05/24 01:11:38;;;;;;;8.15;5.13;;;13.60;99.90;;;;;;5048173;28;20489;-79
2022/05/24 01:14:05;;;;;;;9.75;5.05;;;13.60;99.90;;;;;;5048624;28;20037;-80
2022/05/24 01:16:30;;;;;;;8.07;4.10;;;13.60;99.90;;;;;;5046508;28;20041;-78
2022/05/24 01:18:56;;;;;;;7.47;4.55;;;13.50;99.90;;;;;;5047766;28;20443;-79
2022/05/24 01:21:22;;;;;;;7.88;4.03;;;13.50;99.90;;;;;;5048062;28;20040;-79
2022/05/24 01:23:57;;;;;;;8.90;4.63;;;13.40;99.90;;;;;;5046615;28;20040;-78
2022/05/24 01:26:39;;;;;;;9.10;4.45;;;13.50;99.90;;;;;;5029482;28;20052;-79
2022/05/24 01:29:06;;;;;;;9.10;4.47;;;13.50;99.90;;;;;;5046602;28;20048;-78
2022/05/24 01:37:05;;;;;;;8.40;4.65;;;13.30;99.90;;;;;;5048236;28;20120;-78
2022/05/24 01:39:31;;;;;;;10.77;4.93;;;13.20;99.90;;;;;;5050580;28;20037;-78
2022/05/24 01:41:58;;;;;;;7.00;4.60;;;13.20;99.90;;;;;;5046982;28;20114;-79
2022/05/24 01:44:42;;;;;;;8.75;4.50;;;13.20;99.90;;;;;;5047833;28;20041;-78
2022/05/24 01:47:07;;;;;;;8.85;4.75;;;13.20;99.90;;;;;;5047319;28;20461;-79
2022/05/24 01:49:38;;;;;;;9.68;5.53;;;13.10;99.90;;;;;;5047092;28;20041;-78
2022/05/24 01:52:28;;;;;;;9.63;5.35;;;13.10;99.90;;;;;;5047940;28;20057;-78
2022/05/24 01:55:03;;;;;;;9.13;5.47;;;13.10;99.90;;;;;;5046033;28;20044;-78
2022/05/24 01:57:43;;;;;;;9.55;5.20;;;13.10;99.90;;;;;;5046908;28;20766;-79
2022/05/24 02:00:12;;;;;;;9.07;5.28;;;13.00;99.90;;;;;;5046548;28;20139;-78
2022/05/24 02:02:38;;;;;;;15.65;5.53;;;13.00;99.90;;;;;;5046566;28;20041;-78
2022/05/24 02:05:05;;;;;;;8.40;5.18;;;13.00;99.90;;;;;;5045833;28;20118;-78
2022/05/24 02:07:32;;;;;;;12.18;6.55;;;12.90;99.90;;;;;;5039222;28;20033;-78
2022/05/24 02:09:57;;;;;;;10.27;5.57;;;13.00;99.90;;;;;;5045902;28;20508;-78
2022/05/24 02:12:23;;;;;;;8.63;5.22;;;12.90;99.90;;;;;;5043568;28;20048;-77
2022/05/24 02:14:55;;;;;;;10.13;5.63;;;12.90;99.90;;;;;;5078378;28;20322;-77
2022/05/24 02:17:26;;;;;;;10.60;5.72;;;12.90;99.90;;;;;;5045105;28;20053;-78
2022/05/24 02:19:56;;;;;;;11.93;6.57;;;12.90;99.90;;;;;;5044241;28;20037;-78
2022/05/24 02:22:24;;;;;;;10.73;6.47;;;12.90;99.90;;;;;;5038770;28;20430;-77
2022/05/24 02:25:02;;;;;;;10.55;6.43;;;12.90;99.90;;;;;;5047513;28;20068;-77
2022/05/24 02:27:29;;;;;;;9.38;6.32;;;12.90;99.90;;;;;;5042995;28;20040;-77
2022/05/24 02:29:55;;;;;;;11.40;6.57;;;12.80;99.90;;;;;;5048172;28;20049;-77
2022/05/24 02:32:22;;;;;;;9.82;6.85;;;12.80;99.90;;;;;;5040991;28;20041;-76
2022/05/24 02:34:47;;;;;;;9.65;6.68;;;12.80;99.90;;;;;;5043661;28;20120;-77
2022/05/24 02:37:13;;;;;;;12.25;6.18;;;12.90;99.90;;;;;;5076973;28;20144;-79
2022/05/24 02:42:33;;;;;;;12.75;6.50;;;12.90;99.90;;;;;;5044046;28;20364;-78
2022/05/24 02:44:59;;;;;;;10.30;6.95;;;12.90;99.90;;;;;;5046498;28;20145;-77
2022/05/24 02:47:25;;;;;;;9.93;6.63;;;12.90;99.90;;;;;;5046727;28;20056;-77
2022/05/24 02:49:50;;;;;;;13.43;7.28;;;13.00;99.90;;;;;;5031294;28;20425;-78
2022/05/24 02:52:16;;;;;;;17.48;7.72;;;13.00;99.90;;;;;;5046483;28;20053;-78
2022/05/24 02:54:42;;;;;;;11.02;7.63;;;13.00;99.90;;;;;;5044781;28;20397;-79
2022/05/24 02:57:07;;;;;;;12.25;8.55;;;13.00;99.90;;;;;;5048028;28;20099;-77
2022/05/24 02:59:33;;;;;;;12.93;7.95;;;13.10;99.90;;;;;;5048218;28;20041;-77
2022/05/24 03:01:59;;;;;;;10.80;7.57;;;13.40;99.90;;;;;;5050857;28;20250;-79
2022/05/24 03:04:25;;;;;;;12.65;7.60;;;13.10;99.90;;;;;;5047664;28;20446;-78
2022/05/24 03:09:35;;;;;;;16.08;8.80;;;13.10;99.90;;;;;;5050166;28;20053;-78
2022/05/24 03:14:50;;;;;;;12.68;9.10;;;13.20;99.90;;;;;;5049200;28;20403;-78
2022/05/24 03:17:16;;;;;;;14.77;9.60;;;13.20;99.90;;;;;;5051066;28;20124;-78
2022/05/24 03:19:42;;;;;;;15.52;9.15;;;13.20;99.90;;;;;;5050495;28;20123;-79
2022/05/24 03:22:09;;;;;;;15.55;9.30;;;13.20;99.90;;;;;;5049652;28;20053;-79
2022/05/24 03:24:35;;;;;;;14.02;8.55;;;13.30;99.90;;;;;;5049049;28;20111;-78
2022/05/24 03:27:01;;;;;;;20.52;9.40;;;13.50;99.90;;;;;;5050297;28;20064;-78
2022/05/24 03:29:26;;;;;;;16.65;10.43;;;13.30;99.90;;;;;;5050928;28;20418;-78
2022/05/24 03:31:52;;;;;;;16.92;10.65;;;13.30;99.90;;;;;;5047031;28;20365;-79
2022/05/24 03:34:18;;;;;;;15.20;10.70;;;13.30;99.90;;;;;;5043141;28;20481;-79
2022/05/24 03:36:43;;;;;;;13.90;10.38;;;13.30;99.90;;;;;;5046147;28;20068;-78
2022/05/24 03:39:09;;;;;;;19.15;12.35;;;13.30;99.90;;;;;;5046029;28;20399;-78
2022/05/24 03:41:35;;;;;;;17.63;11.95;;;13.40;99.90;;;;;;5050120;28;20045;-78
2022/05/24 03:44:01;;;;;;;19.48;12.80;;;13.50;99.90;;;;;;5050083;28;20037;-78
2022/05/24 03:46:27;;;;;;;15.27;11.98;;;13.40;99.90;;;;;;5049744;28;20131;-78
2022/05/24 03:48:52;;;;;;;16.58;12.18;;;13.40;99.90;;;;;;5048325;28;20084;-78
2022/05/24 03:51:18;;;;;;;20.70;13.23;;;13.40;99.90;;;;;;5050206;28;20132;-79
2022/05/24 03:53:44;;;;;;;22.02;14.30;;;13.50;99.90;;;;;;5049117;28;20053;-79
2022/05/24 03:56:09;;;;;;;23.85;15.85;;;13.50;99.90;;;;;;5049852;28;20041;-79
2022/05/24 03:58:35;;;;;;;22.77;14.85;;;13.50;99.90;;;;;;5050366;28;20156;-78
2022/05/24 04:01:01;;;;;;;23.17;15.80;;;13.60;99.90;;;;;;5048668;28;20040;-78
2022/05/24 04:03:27;;;;;;;22.70;15.93;;;13.60;99.90;;;;;;5048368;28;20098;-79
2022/05/24 04:05:52;;;;;;;27.05;16.13;;;13.60;99.90;;;;;;5048099;28;20397;-79
2022/05/24 04:08:24;;;;;;;27.17;16.50;;;13.60;99.90;;;;;;5045595;28;20042;-78
2022/05/24 04:10:50;;;;;;;26.25;17.08;;;13.60;99.90;;;;;;5043058;28;20057;-78
2022/05/24 04:13:15;;;;;;;27.48;15.90;;;13.60;99.90;;;;;;5047725;28;20098;-79
2022/05/24 04:15:41;;;;;;;25.05;16.90;;;13.70;99.90;;;;;;5049710;28;20052;-78
2022/05/24 04:18:07;;;;;;;23.42;16.77;;;13.70;99.90;;;;;;5047703;28;20048;-78
2022/05/24 04:20:32;;;;;;;26.10;16.23;;;13.70;99.90;;;;;;5050222;28;20041;-77
2022/05/24 04:22:58;;;;;;;24.63;16.40;;;13.70;99.90;;;;;;5047692;28;20064;-78
2022/05/24 04:25:25;;;;;;;20.45;15.15;;;13.70;99.90;;;;;;5038292;28;20063;-77
2022/05/24 04:27:51;;;;;;;28.73;16.55;;;13.70;99.90;;;;;;5048512;28;20594;-79
2022/05/24 04:30:17;;;;;;;24.13;16.52;;;13.80;99.90;;;;;;5048258;28;20127;-80
2022/05/24 04:32:42;;;;;;;25.77;16.92;;;13.80;99.90;;;;;;5049094;28;20048;-77
2022/05/24 04:35:08;;;;;;;21.33;15.73;;;13.80;99.90;;;;;;5046961;28;20080;-77
2022/05/24 04:37:34;;;;;;;18.90;15.25;;;13.80;99.90;;;;;;5046444;28;20342;-78
2022/05/24 04:39:59;;;;;;;24.70;16.20;;;13.80;99.90;;;;;;5049857;28;20480;-79
2022/05/24 04:42:25;;;;;;;21.10;15.85;;;13.80;99.90;;;;;;5045714;28;20041;-76
2022/05/24 04:44:53;;;;;;;20.70;15.13;;;13.90;99.90;;;;;;5041920;28;20431;-77
2022/05/24 04:47:21;;;;;;;22.17;13.88;;;13.90;99.90;;;;;;5046282;28;20625;-78
2022/05/24 04:49:56;;;;;;;23.50;14.40;;;13.90;99.90;;;;;;5047689;28;20098;-78
2022/05/24 04:52:24;;;;;;;22.63;14.02;;;13.90;99.90;;;;;;5046883;28;20126;-77
2022/05/24 04:54:51;;;;;;;19.50;13.70;;;14.00;99.90;;;;;;5049283;28;20107;-78
2022/05/24 04:57:18;;;;;;;22.40;13.95;;;14.00;99.90;;;;;;5037649;28;20198;-77
2022/05/24 04:59:43;;;;;;;22.50;15.23;;;14.00;99.90;;;;;;5048714;28;20044;-78
2022/05/24 05:02:09;;;;;;;23.05;13.00;;;14.00;99.90;;;;;;5047268;28;20044;-77
2022/05/24 05:04:36;;;;;;;20.40;13.27;;;14.10;99.90;;;;;;5046297;28;20032;-78
2022/05/24 05:07:02;;;;;;;17.77;12.13;;;14.10;99.90;;;;;;5043792;28;20037;-77
2022/05/24 05:09:35;;;;;;;17.38;12.75;;;14.10;99.90;;;;;;5029522;28;20041;-78
2022/05/24 05:12:09;;;;;;;19.23;12.55;;;14.10;99.90;;;;;;5040157;28;20186;-78
2022/05/24 05:14:36;;;;;;;19.80;11.88;;;14.10;99.90;;;;;;5047235;28;20052;-77
2022/05/24 05:17:03;;;;;;;16.42;12.13;;;14.20;99.90;;;;;;5048177;28;20052;-79
2022/05/24 05:19:29;;;;;;;18.65;12.70;;;14.20;99.90;;;;;;5047378;28;20547;-78
2022/05/24 05:21:54;;;;;;;19.02;11.63;;;14.20;99.90;;;;;;5045567;28;20045;-78
2022/05/24 05:24:20;;;;;;;17.15;11.27;;;14.20;99.90;;;;;;5048667;28;20041;-78
2022/05/24 05:26:46;;;;;;;17.10;11.15;;;14.20;99.90;;;;;;5042297;28;20151;-76
2022/05/24 05:29:12;;;;;;;18.95;10.43;;;14.30;99.90;;;;;;5027834;28;20041;-78
2022/05/24 05:31:37;;;;;;;19.40;11.38;;;14.30;99.90;;;;;;5040205;28;20036;-77
2022/05/24 05:34:03;;;;;;;14.68;10.32;;;14.30;99.90;;;;;;5047905;28;20396;-77
2022/05/24 05:36:30;;;;;;;16.20;10.02;;;14.30;99.90;;;;;;5047610;28;20077;-78
2022/05/24 05:38:57;;;;;;;15.82;10.43;;;14.30;99.90;;;;;;5046588;28;20509;-77
2022/05/24 05:41:28;;;;;;;18.02;10.30;;;14.30;99.90;;;;;;5046842;28;20033;-77
2022/05/24 05:43:59;;;;;;;18.33;10.52;;;14.40;99.90;;;;;;5048681;28;20047;-78
2022/05/24 05:46:25;;;;;;;15.60;10.63;;;14.50;99.90;;;;;;5043442;28;20045;-78
2022/05/24 05:48:51;;;;;;;16.42;11.50;;;14.40;99.90;;;;;;5047944;28;20080;-77
2022/05/24 05:51:18;;;;;;;19.55;11.32;;;14.40;99.90;;;;;;5046715;28;20080;-78
2022/05/24 05:53:44;;;;;;;18.73;11.15;;;14.50;99.90;;;;;;5047508;28;20067;-78
2022/05/24 05:56:15;;;;;;;14.63;10.38;;;14.40;99.90;;;;;;5047951;28;20033;-78
2022/05/24 05:58:41;;;;;;;17.08;10.70;;;14.30;99.90;;;;;;5045964;28;20052;-78
2022/05/24 06:01:13;;;;;;;16.40;10.65;;;14.40;99.90;;;;;;5042255;28;20439;-79
2022/05/24 06:03:38;;;;;;;16.73;10.32;;;14.40;99.90;;;;;;5047798;28;20049;-77
2022/05/24 06:06:04;;;;;;;15.80;10.90;;;14.40;99.90;;;;;;5037534;28;20099;-78
2022/05/24 06:08:30;;;;;;;20.70;11.63;;;14.30;99.90;;;;;;5026921;28;20053;-78
2022/05/24 06:10:55;;;;;;;19.15;11.13;;;14.40;99.90;;;;;;5044070;28;20049;-79
2022/05/24 06:13:21;;;;;;;15.77;11.13;;;14.30;99.90;;;;;;5046910;28;20377;-78
2022/05/24 06:15:50;;;;;;;19.85;11.98;;;14.30;99.90;;;;;;5048333;28;20099;-78
2022/05/24 06:18:16;;;;;;;27.80;12.52;;;14.30;99.90;;;;;;5046061;28;20061;-78
2022/05/24 06:20:42;;;;;;;19.13;12.82;;;14.20;99.90;;;;;;5046816;28;20067;-79
2022/05/24 06:23:07;;;;;;;17.02;10.88;;;14.20;99.90;;;;;;5047135;28;20068;-79
2022/05/24 06:25:33;;;;;;;17.45;10.88;;;14.20;99.90;;;;;;5046611;28;20110;-79
2022/05/24 06:27:59;;;;;;;16.33;12.65;;;14.20;99.90;;;;;;5049203;28;20045;-79
2022/05/24 06:30:26;;;;;;;19.42;10.30;;;14.20;99.90;;;;;;5047904;28;20522;-80
2022/05/24 06:32:53;;;;;;;17.02;10.43;;;14.20;99.90;;;;;;5046675;28;20059;-79
2022/05/24 06:35:19;;;;;;;15.32;10.18;;;14.20;99.90;;;;;;5050220;28;20087;-80
2022/05/24 06:37:45;;;;;;;14.13;9.50;;;14.10;99.90;;;;;;5049365;28;20049;-80
2022/05/24 06:40:14;;;;;;;13.98;8.52;;;14.40;99.90;;;;;;5052100;28;20041;-79
2022/05/24 06:42:40;;;;;;;15.23;9.30;;;14.20;99.90;;;;;;5051772;28;20354;-81
2022/05/24 06:45:06;;;;;;;15.07;8.98;;;14.10;99.90;;;;;;5084199;28;20041;-81
2022/05/24 06:47:32;;;;;;;15.80;9.82;;;14.10;99.90;;;;;;5069203;28;20111;-81
2022/05/24 06:49:58;;;;;;;16.33;10.02;;;14.10;99.90;;;;;;5031845;28;20144;-83
2022/05/24 06:52:24;;;;;;;18.90;11.10;;;14.10;99.90;;;;;;5030340;28;20761;-81
2022/05/24 06:54:51;;;;;;;17.63;11.20;;;14.00;99.90;;;;;;5032424;28;20049;-81
2022/05/24 06:57:17;;;;;;;14.95;10.57;;;14.10;99.90;;;;;;5043210;28;20167;-80
2022/05/24 07:02:27;;;;;;;20.02;10.77;;;14.10;99.90;;;;;;5064033;28;20190;-81
2022/05/24 07:05:07;;;;;;;18.05;10.27;;;14.10;99.90;;;;;;5050942;28;20140;-80
2022/05/24 07:07:34;;;;;;;21.95;11.80;;;14.10;99.90;;;;;;5051952;28;20037;-80
2022/05/24 07:10:02;;;;;;;22.92;12.20;;;14.10;99.90;;;;;;5051196;28;20128;-81
2022/05/24 07:12:27;;;;;;;19.50;12.05;;;14.10;99.90;;;;;;5051342;28;20068;-81
2022/05/24 07:14:53;;;;;;;24.17;13.48;;;14.20;99.90;;;;;;5050529;28;20040;-80
2022/05/24 07:17:20;;;;;;;29.02;13.43;;;14.40;99.90;;;;;;5049948;28;20053;-84
2022/05/24 07:19:46;;;;;;;27.13;13.13;;;14.20;99.90;;;;;;5051151;28;20045;-81
2022/05/24 07:22:13;;;;;;;20.08;12.68;;;14.30;99.90;;;;;;5050787;28;20436;-82
2022/05/24 07:24:39;;;;;;;22.00;12.35;;;14.30;99.90;;;;;;5051203;28;20453;-81
2022/05/24 07:27:10;;;;;;;20.33;11.68;;;14.30;99.90;;;;;;5050475;28;20098;-81
2022/05/24 07:29:36;;;;;;;15.57;10.68;;;14.30;99.90;;;;;;5050274;28;20083;-80
2022/05/24 07:32:02;;;;;;;16.02;9.40;;;14.40;99.90;;;;;;5049465;28;20113;-81
2022/05/24 07:34:27;;;;;;;14.40;8.68;;;14.40;99.90;;;;;;5049926;28;20067;-82
2022/05/24 07:36:53;;;;;;;14.93;8.88;;;14.40;99.90;;;;;;5046187;28;20041;-82
2022/05/24 07:39:19;;;;;;;15.20;8.95;;;14.40;99.90;;;;;;5050742;28;20086;-81
2022/05/24 07:47:14;;;;;;;11.40;6.35;;;14.60;99.90;;;;;;5047594;28;20045;-82
2022/05/24 07:49:40;;;;;;;8.95;5.43;;;14.40;99.90;;;;;;5052096;28;20114;-79
2022/05/24 07:52:06;;;;;;;10.30;5.57;;;14.40;99.90;;;;;;5051671;28;20441;-81
2022/05/24 07:54:32;;;;;;;14.93;5.45;;;14.30;99.90;;;;;;5049510;28;20074;-79
2022/05/24 07:56:58;;;;;;;9.98;5.50;;;14.30;99.90;;;;;;5049937;28;20033;-80
2022/05/24 07:59:24;;;;;;;13.38;4.85;;;14.30;99.90;;;;;;5049054;28;20385;-79
2022/05/24 08:01:50;;;;;;;10.15;4.47;;;14.20;99.90;;;;;;5044983;28;20045;-81
2022/05/24 08:04:16;;;;;;;9.10;4.90;;;14.20;99.90;;;;;;5031569;28;20396;-79
2022/05/24 08:06:42;;;;;;;8.77;4.32;;;14.20;99.90;;;;;;5038188;28;20044;-79
2022/05/24 08:09:07;;;;;;;12.20;4.95;;;14.10;99.90;;;;;;5047378;28;20420;-81
2022/05/24 08:11:33;;;;;;;11.73;5.40;;;14.10;99.90;;;;;;5036566;28;20125;-81
2022/05/24 08:14:02;;;;;;;10.65;5.22;;;14.10;99.90;;;;;;5045857;28;20092;-81
2022/05/24 08:16:29;;;;;;;12.77;5.20;;;14.10;99.90;;;;;;5030583;28;20147;-80
2022/05/24 08:18:54;;;;;;;13.15;6.13;;;14.00;99.90;;;;;;5044939;28;20041;-82
2022/05/24 08:21:20;;;;;;;12.65;6.03;;;14.00;99.90;;;;;;5046355;28;20043;-82
2022/05/24 08:23:45;;;;;;;12.77;6.30;;;13.90;99.90;;;;;;5062792;28;20040;-82
2022/05/24 08:26:12;;;;;;;13.68;5.68;;;13.90;99.90;;;;;;5052519;28;20069;-81
2022/05/24 08:28:40;;;;;;;14.75;5.53;;;13.90;99.90;;;;;;5044663;28;20135;-81
2022/05/24 08:31:08;;;;;;;11.43;5.43;;;13.80;99.90;;;;;;5041788;28;20091;-82
2022/05/24 08:33:34;;;;;;;13.57;5.93;;;13.80;99.90;;;;;;5046283;28;20041;-79
2022/05/24 08:35:59;;;;;;;14.80;6.93;;;13.80;99.90;;;;;;5052297;28;20139;-79
2022/05/24 08:38:26;;;;;;;13.05;6.43;;;13.70;99.90;;;;;;5045972;28;20036;-82
2022/05/24 08:40:59;;;;;;;12.57;5.53;;;13.70;99.90;;;;;;5050290;28;20081;-80
2022/05/24 08:43:56;;;;;;;14.43;6.72;;;13.60;99.90;;;;;;5048073;28;20520;-81
2022/05/24 08:49:22;;;;;;;16.08;7.75;;;13.50;99.90;;;;;;5047900;28;20362;-80
2022/05/24 08:51:54;;;;;;;20.02;8.05;;;13.40;99.90;;;;;;5047649;28;20127;-78
2022/05/24 08:54:39;;;;;;;22.52;7.65;;;13.40;99.90;;;;;;5036942;28;20386;-78
2022/05/24 08:57:09;;;;;;;16.42;8.75;;;13.40;99.90;;;;;;5039334;28;20033;-79
2022/05/24 08:59:43;;;;;;;27.47;8.87;;;13.30;99.90;;;;;;5047192;28;20063;-80
2022/05/24 09:02:09;;;;;;;19.33;9.32;;;13.30;99.90;;;;;;5043506;28;20044;-80
2022/05/24 09:04:35;;;;;;;22.25;9.43;;;13.20;99.90;;;;;;5065725;28;20482;-80
2022/05/24 09:07:19;;;;;;;19.60;10.25;;;13.20;99.90;;;;;;5047684;28;20041;-81
2022/05/24 09:09:53;;;;;;;20.33;9.40;;;13.20;99.90;;;;;;5040403;28;20042;-82
2022/05/24 09:12:28;;;;;;;15.00;10.70;;;13.30;99.90;;;;;;5042362;28;20045;-84
2022/05/24 09:15:08;;;;;;;20.33;10.25;;;13.30;99.90;;;;;;5033776;28;20231;-82
2022/05/24 09:17:57;;;;;;;25.17;11.15;;;13.30;99.90;;;;;;5044341;28;20051;-84
2022/05/24 09:20:25;;;;;;;23.27;10.65;;;13.30;99.90;;;;;;5048486;28;20049;-84
2022/05/24 09:23:25;;;;;;;18.02;10.25;;;13.40;99.90;;;;;;5046343;28;20178;-85
2022/05/24 09:26:04;;;;;;;21.10;11.35;;;13.40;99.90;;;;;;5047902;28;20052;-82
2022/05/24 09:28:49;;;;;;;22.02;12.07;;;13.50;99.90;;;;;;5048130;28;20427;-83
2022/05/24 09:31:30;;;;;;;25.40;13.23;;;13.50;99.90;;;;;;5048323;28;20776;-85
2022/05/24 09:34:05;;;;;;;;;;;13.60;99.90;;;;;;5046737;28;20071;-84
2022/05/24 09:36:33;;;;;;;22.15;10.18;;;13.60;99.90;;;;;;5045968;28;19929;-84
2022/05/24 09:39:00;;;;;;;9.25;5.55;;;13.60;99.90;;;;;;5048144;28;20033;-82
2022/05/24 09:41:25;;;;;;;6.93;4.30;;;13.50;99.90;;;;;;5035688;28;20377;-82
2022/05/24 09:44:17;;;;;;;6.00;3.63;;;13.40;99.90;;;;;;5037837;28;20053;-85
2022/05/24 09:46:44;;;;;;;5.55;3.00;;;13.30;99.90;;;;;;5042010;28;20049;-84
2022/05/24 09:49:24;;;;;;;8.93;3.03;;;13.30;99.90;;;;;;5047918;28;20040;-85
2022/05/24 09:51:55;;;;;;;4.63;2.47;;;13.20;99.90;;;;;;5030512;28;20058;-83
2022/05/24 09:54:25;;;;;;;3.47;2.58;;;13.20;99.90;;;;;;5050224;28;20128;-86
2022/05/24 09:57:07;;;;;;;5.28;3.50;;;13.10;99.90;;;;;;5048535;28;20124;-86
2022/05/24 09:59:34;;;;;;;5.95;3.00;;;13.10;99.90;;;;;;5036952;28;20069;-86
2022/05/24 10:02:02;;;;;;;9.13;3.15;;;13.10;99.90;;;;;;5045429;28;20037;-86
2022/05/24 10:04:37;;;;;;;7.45;3.80;;;13.20;99.90;;;;;;5067413;28;20049;-87
2022/05/24 10:07:08;;;;;;;6.68;3.47;;;13.20;99.90;;;;;;5048142;28;20041;-86
2022/05/24 10:10:03;;;;;;;8.85;3.70;;;13.40;99.90;;;;;;5038469;28;20055;-84
2022/05/24 10:12:37;;;;;;;3.83;2.50;;;13.50;99.90;;;;;;5048166;28;20049;-85
2022/05/24 10:15:17;;;;;;;5.97;3.15;;;13.60;99.90;;;;;;5047761;28;20072;-87
2022/05/24 10:18:20;;;;;;;5.63;2.90;;;13.70;99.90;;;;;;5064776;28;20428;-85
2022/05/24 10:21:13;;;;;;;5.40;3.05;;;13.70;99.90;;;;;;5042480;28;20252;-86
2022/05/24 10:23:56;;;;;;;5.75;2.80;;;13.80;99.90;;;;;;5052262;28;20123;-84
2022/05/24 10:26:52;;;;;;;5.28;3.00;;;13.90;99.90;;;;;;5053811;28;20048;-85
2022/05/24 10:29:54;;;;;;;5.05;2.42;;;14.00;99.90;;;;;;5033738;28;20346;-83
2022/05/24 10:38:45;;;;;;;5.43;2.72;;;14.00;99.90;;;;;;5045407;28;20080;-83
2022/05/24 10:41:20;;;;;;;4.68;2.60;;;14.00;99.90;;;;;;5030818;28;20053;-84
2022/05/24 10:44:05;;;;;;;7.05;2.40;;;14.00;99.90;;;;;;5052355;28;20056;-84
2022/05/24 10:46:34;;;;;;;8.40;2.72;;;13.90;99.90;;;;;;5052034;28;20123;-83
2022/05/24 10:49:26;;;;;;;5.32;2.60;;;13.80;99.90;;;;;;5050033;28;20447;-85
2022/05/24 10:52:00;;;;;;;6.47;2.60;;;13.80;99.90;;;;;;5044107;28;20179;-82
2022/05/24 10:55:03;;;;;;;6.07;2.58;;;13.70;99.90;;;;;;5048996;28;20369;-82
2022/05/24 10:57:41;;;;;;;7.68;2.70;;;13.60;99.90;;;;;;5044023;28;20053;-82
2022/05/24 11:00:14;;;;;;;7.18;2.88;;;13.60;99.90;;;;;;5052885;28;20242;-82
2022/05/24 11:02:48;;;;;;;7.55;2.95;;;13.60;99.90;;;;;;5050733;28;20056;-85
2022/05/24 11:05:27;;;;;;;5.35;2.92;;;13.60;99.90;;;;;;5050158;28;20389;-85
2022/05/24 11:08:06;;;;;;;4.53;2.08;;;13.70;99.90;;;;;;5043807;28;20575;-84
2022/05/24 11:10:38;;;;;;;8.13;3.15;;;13.90;99.90;;;;;;5045648;28;20524;-86
2022/05/24 11:13:10;;;;;;;6.47;3.10;;;14.00;99.90;;;;;;5048318;28;20090;-85
2022/05/24 11:15:47;;;;;;;3.40;2.40;;;14.10;99.90;;;;;;5052063;28;20121;-82
2022/05/24 11:18:17;;;;;;;8.10;2.70;;;14.30;99.90;;;;;;5033603;28;20041;-80
2022/05/24 11:21:04;;;;;;;9.50;2.45;;;14.20;99.90;;;;;;5039221;28;20067;-86
2022/05/24 11:23:36;;;;;;;6.47;2.08;;;14.20;99.90;;;;;;5051874;28;20057;-82
2022/05/24 11:26:25;;;;;;;2.80;1.80;;;14.10;99.90;;;;;;5049289;28;20493;-84
2022/05/24 11:28:54;;;;;;;4.50;1.90;;;14.10;99.90;;;;;;5049623;28;20120;-84
2022/05/24 11:31:28;;;;;;;4.97;2.25;;;14.00;99.90;;;;;;5050849;28;20105;-81
2022/05/24 11:33:56;;;;;;;5.07;2.70;;;13.90;99.90;;;;;;5046141;28;20044;-83
2022/05/24 11:36:31;;;;;;;3.72;2.30;;;13.90;99.90;;;;;;5049144;28;20051;-81
2022/05/24 11:39:07;;;;;;;5.65;3.75;;;14.00;99.90;;;;;;5046828;28;20071;-80
2022/05/24 11:41:32;;;;;;;3.90;2.65;;;13.90;99.90;;;;;;5046042;28;20033;-81
2022/05/24 11:44:07;;;;;;;4.28;2.25;;;13.90;99.90;;;;;;5041630;28;20500;-81
2022/05/24 11:46:33;;;;;;;4.40;2.05;;;13.90;99.90;;;;;;5039007;28;20091;-81
2022/05/24 11:49:04;;;;;;;5.22;1.80;;;14.00;99.90;;;;;;5049302;28;20041;-82
2022/05/24 11:51:45;;;;;;;3.58;1.75;;;14.00;99.90;;;;;;5050211;28;20037;-80
2022/05/24 11:54:21;;;;;;;3.85;2.00;;;14.10;99.90;;;;;;5040515;28;20587;-81
2022/05/24 11:57:02;;;;;;;2.55;1.60;;;14.20;99.90;;;;;;5049455;28;20060;-82
2022/05/24 11:59:40;;;;;;;4.38;1.70;;;14.40;99.90;;;;;;5048608;28;20144;-83
2022/05/24 12:02:21;;;;;;;2.55;1.98;;;14.60;99.90;;;;;;5049250;28;20057;-81
2022/05/24 12:07:55;;;;;;;5.90;1.50;;;15.00;99.90;;;;;;5041066;28;20342;-81
2022/05/24 12:10:21;;;;;;;4.10;1.70;;;15.10;99.90;;;;;;5036355;28;20144;-80
2022/05/24 12:12:53;;;;;;;3.63;1.63;;;15.10;99.90;;;;;;5039561;28;20517;-80
2022/05/24 12:15:30;;;;;;;11.70;1.73;;;15.00;99.90;;;;;;5049789;28;20417;-81
2022/05/24 12:17:59;;;;;;;2.50;1.13;;;14.90;99.90;;;;;;5047965;28;20335;-81
2022/05/24 12:20:46;;;;;;;4.57;1.17;;;14.80;99.90;;;;;;5048168;28;21880;-81
2022/05/24 12:23:29;;;;;;;2.13;0.85;;;14.80;99.90;;;;;;5070596;28;20120;-80
2022/05/24 12:26:03;;;;;;;3.08;1.00;;;14.70;99.90;;;;;;5048310;28;20048;-82
2022/05/24 12:28:37;;;;;;;4.15;1.08;;;14.60;99.90;;;;;;5047034;28;20523;-81
2022/05/24 12:31:28;;;;;;;1.90;0.88;;;14.60;99.90;;;;;;5049426;28;20455;-80
2022/05/24 12:34:14;;;;;;;6.25;1.10;;;14.60;99.90;;;;;;5048561;28;20291;-80
2022/05/24 12:36:39;;;;;;;4.20;1.33;;;14.70;99.90;;;;;;5047543;28;20049;-80
2022/05/24 12:39:08;;;;;;;5.57;1.30;;;14.80;99.90;;;;;;5046920;28;20442;-80
2022/05/24 12:41:33;;;;;;;2.58;0.95;;;15.00;99.90;;;;;;5047590;28;20044;-80
2022/05/24 12:44:14;;;;;;;9.23;1.52;;;15.00;99.90;;;;;;5048901;28;20055;-79
2022/05/24 12:46:42;;;;;;;4.72;1.17;;;14.90;99.90;;;;;;5049672;28;20045;-79
2022/05/24 12:49:15;;;;;;;12.18;1.10;;;14.80;99.90;;;;;;5048362;28;20048;-82
2022/05/24 12:51:42;;;;;;;1.67;0.90;;;14.80;99.90;;;;;;5070013;28;20389;-79
2022/05/24 12:54:13;;;;;;;13.93;2.03;;;14.80;99.90;;;;;;5047227;28;20420;-80
2022/05/24 12:56:39;;;;;;;3.10;1.30;;;15.00;99.90;;;;;;5028827;28;20504;-80
2022/05/24 12:59:12;;;;;;;6.85;1.73;;;15.20;99.90;;;;;;5045657;28;20109;-81
2022/05/24 13:01:41;;;;;;;6.05;1.38;;;15.30;99.90;;;;;;5048111;28;20264;-81
2022/05/24 13:04:24;;;;;;;7.90;2.03;;;15.40;99.90;;;;;;5045947;28;20044;-79
2022/05/24 13:06:51;;;;;;;7.38;1.45;;;15.50;99.90;;;;;;5067141;28;20109;-80
2022/05/24 13:09:32;;;;;;;8.45;1.20;;;15.40;99.90;;;;;;5053696;28;20424;-80
2022/05/24 13:12:08;;;;;;;5.13;1.40;;;15.30;99.90;;;;;;5049001;28;20048;-80
2022/05/24 13:14:44;;;;;;;7.00;1.48;;;15.20;99.90;;;;;;5047431;28;20052;-81
2022/05/24 13:17:10;;;;;;;4.15;1.38;;;15.20;99.90;;;;;;5048884;28;20491;-79
2022/05/24 13:19:45;;;;;;;3.53;1.15;;;15.10;99.90;;;;;;5048666;28;20377;-80
2022/05/24 13:22:11;;;;;;;4.25;1.00;;;15.10;99.90;;;;;;5045117;28;20069;-80
2022/05/24 13:24:49;;;;;;;6.57;1.33;;;15.20;99.90;;;;;;5047928;28;20045;-80
2022/05/24 13:27:15;;;;;;;5.70;1.13;;;15.30;99.90;;;;;;5045702;28;20111;-77
2022/05/24 13:33:33;;;;;;;5.45;0.93;;;15.50;99.90;;;;;;5047488;28;20041;-80